createdAt,value
2023-09-03T00:00:08.513Z,102708.00
2023-09-03T00:02:35.095Z,102708.19
2023-09-03T00:05:01.679Z,102711.78
2023-09-03T00:07:28.320Z,102703.25
2023-09-03T00:09:54.903Z,102712.81
2023-09-03T00:12:21.489Z,102723.28
2023-09-03T00:14:48.256Z,102715.59
2023-09-03T00:17:15.860Z,102725.69
2023-09-03T00:19:49.338Z,102722.09
2023-09-03T00:22:15.956Z,102719.72
2023-09-03T00:24:42.456Z,102723.13
2023-09-03T00:27:09.157Z,102719.22
2023-09-03T00:29:36.831Z,102711.19
2023-09-03T00:32:04.448Z,102711.19
2023-09-03T00:34:33.758Z,102724.38
2023-09-03T00:37:00.681Z,102716.00
2023-09-03T00:39:27.325Z,102711.25
2023-09-03T00:41:54.347Z,102708.16
2023-09-03T00:44:23.204Z,102718.78
2023-09-03T00:46:50.054Z,102717.75
2023-09-03T00:49:21.370Z,102714.19
2023-09-03T00:51:49.656Z,102712.28
2023-09-03T00:54:16.316Z,102708.88
2023-09-03T00:56:45.776Z,102714.34
2023-09-03T00:59:12.373Z,102712.66
2023-09-03T01:01:39.924Z,102711.78
2023-09-03T01:04:06.576Z,102711.47
2023-09-03T01:06:46.526Z,102706.53
2023-09-03T01:09:13.183Z,102714.03
2023-09-03T01:11:44.858Z,102703.13
2023-09-03T01:14:24.712Z,102700.03
2023-09-03T01:17:19.960Z,102696.97
2023-09-03T01:19:58.357Z,102704.97
2023-09-03T01:22:55.289Z,102709.94
2023-09-03T01:25:46.970Z,102724.28
2023-09-03T01:28:31.586Z,102720.53
2023-09-03T01:31:02.988Z,102724.28
2023-09-03T01:33:31.887Z,102719.31
2023-09-03T01:36:12.680Z,102728.69
2023-09-03T01:38:40.696Z,102721.84
2023-09-03T01:41:08.688Z,102727.66
2023-09-03T01:43:38.829Z,102727.47
2023-09-03T01:46:08.575Z,102726.59
2023-09-03T01:48:50.174Z,102731.72
2023-09-03T01:51:25.778Z,102736.84
2023-09-03T01:54:03.902Z,102738.53
2023-09-03T01:56:35.989Z,102743.81
2023-09-03T01:59:12.891Z,102735.47
2023-09-03T02:01:39.640Z,102732.72
2023-09-03T02:04:06.308Z,102725.53
2023-09-03T02:06:32.827Z,102726.41
2023-09-03T02:09:02.275Z,102737.34
2023-09-03T02:11:28.763Z,102735.47
2023-09-03T02:13:55.437Z,102737.69
2023-09-03T02:16:22.664Z,102735.31
2023-09-03T02:18:49.179Z,102739.75
2023-09-03T02:21:28.231Z,102735.31
2023-09-03T02:23:54.815Z,102740.13
2023-09-03T02:26:21.331Z,102719.78
2023-09-03T02:28:47.885Z,102708.50
2023-09-03T02:31:14.494Z,102697.22
2023-09-03T02:33:41.030Z,102691.75
2023-09-03T02:36:07.706Z,102674.50
2023-09-03T02:38:36.834Z,102673.66
2023-09-03T02:41:03.418Z,102664.97
2023-09-03T02:43:30.354Z,102676.56
2023-09-03T02:45:56.941Z,102685.63
2023-09-03T02:48:23.653Z,102691.94
2023-09-03T02:50:50.250Z,102693.81
2023-09-03T02:53:16.741Z,102702.03
2023-09-03T02:55:48.902Z,102700.84
2023-09-03T02:58:15.445Z,102694.69
2023-09-03T03:00:41.997Z,102694.88
2023-09-03T03:03:08.655Z,102698.28
2023-09-03T03:05:35.565Z,102702.72
2023-09-03T03:08:04.197Z,102710.06
2023-09-03T03:10:30.891Z,102725.81
2023-09-03T03:12:57.385Z,102734.38
2023-09-03T03:15:23.919Z,102741.19
2023-09-03T03:17:50.513Z,102741.53
2023-09-03T03:20:17.283Z,102748.91
2023-09-03T03:22:44.739Z,102751.63
2023-09-03T03:25:23.791Z,102744.78
2023-09-03T03:27:50.285Z,102746.50
2023-09-03T03:30:16.809Z,102736.94
2023-09-03T03:32:43.390Z,102736.41
2023-09-03T03:35:10.275Z,102734.22
2023-09-03T03:37:36.895Z,102733.88
2023-09-03T03:40:04.986Z,102734.22
2023-09-03T03:42:32.207Z,102738.84
2023-09-03T03:44:58.739Z,102751.13
2023-09-03T03:47:25.267Z,102751.78
2023-09-03T03:49:52.258Z,102744.63
2023-09-03T03:52:18.970Z,102741.91
2023-09-03T03:54:45.560Z,102742.41
2023-09-03T03:57:12.080Z,102752.50
2023-09-03T03:59:38.656Z,102760.84
2023-09-03T04:02:05.275Z,102757.44
2023-09-03T04:04:31.801Z,102754.88
2023-09-03T04:06:58.419Z,102757.13
2023-09-03T04:09:24.906Z,102760.00
2023-09-03T04:11:51.438Z,102759.13
2023-09-03T04:14:17.993Z,102762.56
2023-09-03T04:16:44.579Z,102754.38
2023-09-03T04:19:12.793Z,102750.94
2023-09-03T04:21:39.413Z,102769.38
2023-09-03T04:24:07.649Z,102766.34
2023-09-03T04:26:34.251Z,102763.44
2023-09-03T04:29:00.890Z,102764.28
2023-09-03T04:31:27.464Z,102770.41
2023-09-03T04:33:54.139Z,102768.34
2023-09-03T04:36:20.693Z,102769.06
2023-09-03T04:38:47.251Z,102765.63
2023-09-03T04:41:13.788Z,102763.25
2023-09-03T04:43:47.205Z,102767.00
2023-09-03T04:46:13.753Z,102764.59
2023-09-03T04:48:40.417Z,102762.22
2023-09-03T04:51:08.622Z,102770.41
2023-09-03T04:53:35.359Z,102776.56
2023-09-03T04:56:03.562Z,102782.03
2023-09-03T04:58:30.244Z,102774.84
2023-09-03T05:00:56.747Z,102776.91
2023-09-03T05:03:23.404Z,102790.22
2023-09-03T05:05:49.914Z,102794.34
2023-09-03T05:08:16.432Z,102802.66
2023-09-03T05:10:43.060Z,102812.41
2023-09-03T05:13:09.611Z,102805.06
2023-09-03T05:15:37.891Z,102819.41
2023-09-03T05:18:04.630Z,102813.78
2023-09-03T05:20:31.268Z,102819.94
2023-09-03T05:22:57.765Z,102827.13
2023-09-03T05:25:24.267Z,102839.75
2023-09-03T05:27:50.875Z,102834.78
2023-09-03T05:30:17.454Z,102831.88
2023-09-03T05:32:44.113Z,102844.34
2023-09-03T05:35:11.082Z,102844.69
2023-09-03T05:37:37.804Z,102847.09
2023-09-03T05:40:05.961Z,102843.16
2023-09-03T05:42:32.691Z,102849.31
2023-09-03T05:45:02.176Z,102847.59
2023-09-03T05:47:28.738Z,102841.81
2023-09-03T05:49:56.474Z,102844.88
2023-09-03T05:52:23.017Z,102843.84
2023-09-03T05:54:49.558Z,102856.84
2023-09-03T05:57:16.169Z,102857.88
2023-09-03T05:59:42.693Z,102876.00
2023-09-03T06:02:09.334Z,102882.50
2023-09-03T06:04:35.901Z,102884.53
2023-09-03T06:07:02.432Z,102884.19
2023-09-03T06:09:28.992Z,102881.97
2023-09-03T06:11:55.566Z,102892.25
2023-09-03T06:14:22.118Z,102887.63
2023-09-03T06:16:48.664Z,102892.03
2023-09-03T06:19:15.626Z,102888.25
2023-09-03T06:21:42.225Z,102881.41
2023-09-03T06:24:09.078Z,102880.53
2023-09-03T06:26:35.630Z,102884.13
2023-09-03T06:29:02.149Z,102871.28
2023-09-03T06:31:28.855Z,102878.63
2023-09-03T06:33:55.658Z,102885.28
2023-09-03T06:36:22.292Z,102882.31
2023-09-03T06:38:48.833Z,102891.34
2023-09-03T06:41:15.780Z,102891.69
2023-09-03T06:43:42.389Z,102904.31
2023-09-03T06:46:09.615Z,102898.59
2023-09-03T06:48:37.428Z,102904.69
2023-09-03T06:51:04.836Z,102907.41
2023-09-03T06:53:31.450Z,102911.81
2023-09-03T06:55:58.410Z,102909.38
2023-09-03T06:58:25.043Z,102903.53
2023-09-03T07:00:53.830Z,102908.47
2023-09-03T07:03:22.041Z,102909.63
2023-09-03T07:05:48.699Z,102920.22
2023-09-03T07:08:15.360Z,102917.59
2023-09-03T07:10:41.987Z,102923.41
2023-09-03T07:13:09.979Z,102926.66
2023-09-03T07:15:37.498Z,102926.97
2023-09-03T07:18:05.668Z,102933.38
2023-09-03T07:20:35.390Z,102927.16
2023-09-03T07:23:01.983Z,102925.38
2023-09-03T07:25:32.713Z,102928.78
2023-09-03T07:27:59.301Z,102927.00
2023-09-03T07:30:25.993Z,102925.22
2023-09-03T07:32:52.614Z,102930.97
2023-09-03T07:35:19.492Z,102928.84
2023-09-03T07:37:46.182Z,102933.56
2023-09-03T07:40:13.041Z,102942.09
2023-09-03T07:42:39.888Z,102945.59
2023-09-03T07:45:07.184Z,102949.13
2023-09-03T07:47:33.895Z,102950.06
2023-09-03T07:50:02.336Z,102946.88
2023-09-03T07:52:29.110Z,102954.19
2023-09-03T07:54:55.668Z,102948.41
2023-09-03T07:57:22.419Z,102948.00
2023-09-03T07:59:51.607Z,102950.75
2023-09-03T08:02:18.169Z,102952.44
2023-09-03T08:04:48.505Z,102948.28
2023-09-03T08:07:15.017Z,102953.69
2023-09-03T08:09:42.120Z,102943.53
2023-09-03T08:12:08.658Z,102947.03
2023-09-03T08:14:35.248Z,102942.44
2023-09-03T08:17:01.746Z,102946.78
2023-09-03T08:19:28.473Z,102948.38
2023-09-03T08:21:55.091Z,102946.38
2023-09-03T08:24:21.734Z,102947.81
2023-09-03T08:26:51.191Z,102944.72
2023-09-03T08:29:17.775Z,102938.06
2023-09-03T08:31:44.355Z,102939.44
2023-09-03T08:34:11.441Z,102938.31
2023-09-03T08:36:38.039Z,102944.47
2023-09-03T08:39:07.206Z,102948.56
2023-09-03T08:41:42.448Z,102942.50
2023-09-03T08:44:35.988Z,102937.47
2023-09-03T08:47:17.525Z,102943.72
2023-09-03T08:49:59.870Z,102945.25
2023-09-03T08:52:29.220Z,102952.09
2023-09-03T08:54:56.606Z,102950.72
2023-09-03T09:00:24.831Z,102950.22
2023-09-03T09:02:53.499Z,102957.25
2023-09-03T09:05:31.271Z,102961.50
2023-09-03T09:07:59.665Z,102952.63
2023-09-03T09:10:33.296Z,102959.84
2023-09-03T09:13:07.912Z,102960.72
2023-09-03T09:15:40.916Z,102954.13
2023-09-03T09:18:11.864Z,102947.97
2023-09-03T09:20:42.594Z,102956.06
2023-09-03T09:23:09.877Z,102950.13
2023-09-03T09:25:37.519Z,102954.19
2023-09-03T09:28:14.329Z,102954.84
2023-09-03T09:30:58.202Z,102951.66
2023-09-03T09:33:26.246Z,102950.59
2023-09-03T09:35:54.844Z,102948.91
2023-09-03T09:38:36.090Z,102949.72
2023-09-03T09:41:22.332Z,102961.22
2023-09-03T09:43:49.084Z,102957.81
2023-09-03T09:46:29.529Z,102968.84
2023-09-03T09:48:58.175Z,102962.03
2023-09-03T09:51:26.301Z,102959.47
2023-09-03T09:54:04.312Z,102956.25
2023-09-03T09:56:37.414Z,102958.31
2023-09-03T09:59:05.537Z,102963.59
2023-09-03T10:01:47.540Z,102968.28
2023-09-03T10:04:14.468Z,102965.28
2023-09-03T10:06:42.076Z,102955.53
2023-09-03T10:09:09.770Z,102959.13
2023-09-03T10:11:36.543Z,102960.34
2023-09-03T10:14:03.162Z,102964.38
2023-09-03T10:16:33.448Z,102968.53
2023-09-03T10:19:19.567Z,102958.47
2023-09-03T10:22:28.504Z,102957.44
2023-09-03T10:25:25.150Z,102953.59
2023-09-03T10:27:58.422Z,102951.44
2023-09-03T10:30:31.325Z,102949.69
2023-09-03T10:32:59.163Z,102951.47
2023-09-03T10:35:25.956Z,102945.81
2023-09-03T10:37:52.862Z,102944.31
2023-09-03T10:40:26.055Z,102944.78
2023-09-03T10:42:54.702Z,102945.19
2023-09-03T10:45:28.052Z,102937.66
2023-09-03T10:48:05.152Z,102931.03
2023-09-03T10:51:02.054Z,102925.94
2023-09-03T10:53:40.645Z,102938.31
2023-09-03T10:56:51.085Z,102937.53
2023-09-03T10:59:17.643Z,102940.31
2023-09-03T11:01:46.893Z,102943.22
2023-09-03T11:04:16.306Z,102944.84
2023-09-03T11:07:15.169Z,102936.25
2023-09-03T11:09:41.934Z,102938.78
2023-09-03T11:12:08.680Z,102942.13
2023-09-03T11:14:36.079Z,102945.66
2023-09-03T11:17:09.777Z,102937.59
2023-09-03T11:19:42.284Z,102939.41
2023-09-03T11:22:09.405Z,102944.44
2023-09-03T11:24:59.251Z,102936.25
2023-09-03T11:27:25.894Z,102934.00
2023-09-03T11:30:04.341Z,102941.56
2023-09-03T11:32:38.517Z,102941.31
2023-09-03T11:35:08.358Z,102948.03
2023-09-03T11:37:36.761Z,102948.84
2023-09-03T11:40:05.425Z,102945.19
2023-09-03T11:42:33.146Z,102954.81
2023-09-03T11:44:59.677Z,102955.13
2023-09-03T11:47:26.295Z,102957.78
2023-09-03T11:49:53.030Z,102950.47
2023-09-03T11:52:19.727Z,102953.78
2023-09-03T11:54:46.613Z,102957.91
2023-09-03T11:57:16.475Z,102958.50
2023-09-03T11:59:43.687Z,102958.75
2023-09-03T12:02:30.408Z,102957.66
2023-09-03T12:04:57.476Z,102953.94
2023-09-03T12:07:24.083Z,102958.16
